Time;durP1;ratioP1;P1;durP2;ratioP2;P2;SDS_P1;SDS_P2;PMS_P1;PMS_P2;Temp;Humidity;BMP_temperature;BMP_pressure;BME280_temperature;BME280_humidity;BME280_pressure;Samples;Min_cycle;Max_cycle;Signal;HPM_P1;HPM_P2
2022/07/03 00:00:08;;;;;;;;;;;16.60;93.30;;;;;;5046884;28;19929;-83
2022/07/03 00:02:39;;;;;;;;;;;18.30;93.80;;;;;;5047012;28;19925;-84
2022/07/03 00:05:09;;;;;;;;;;;16.60;93.50;;;;;;5052542;28;19929;-84
2022/07/03 00:08:10;;;;;;;;;;;16.50;93.40;;;;;;5020282;28;19928;-84
2022/07/03 00:10:40;;;;;;;;;;;16.50;93.50;;;;;;5034089;28;19940;-82
2022/07/03 00:13:09;;;;;;;;;;;16.40;93.50;;;;;;5053496;28;19925;-83
2022/07/03 00:16:07;;;;;;;;;;;16.40;93.50;;;;;;5036968;28;19925;-84
2022/07/03 00:19:33;;;;;;;;;;;16.30;93.60;;;;;;5057186;28;19921;-84
2022/07/03 00:22:05;;;;;;;;;;;16.30;93.60;;;;;;5041806;28;19929;-83
2022/07/03 00:24:44;;;;;;;;;;;16.30;93.60;;;;;;5006918;28;19925;-84
2022/07/03 00:27:15;;;;;;;;;;;16.30;93.50;;;;;;5037412;28;19929;-84
2022/07/03 00:29:44;;;;;;;;;;;16.30;93.40;;;;;;5058124;28;19928;-83
2022/07/03 00:32:36;;;;;;;;;;;16.30;93.30;;;;;;5054633;28;19929;-84
2022/07/03 00:39:24;;;;;;;;;;;16.30;93.40;;;;;;5060965;28;19921;-84
2022/07/03 00:42:00;;;;;;;;;;;16.30;93.30;;;;;;5042758;28;19929;-83
2022/07/03 00:44:28;;;;;;;;;;;16.30;93.20;;;;;;5035398;28;19925;-83
2022/07/03 00:47:21;;;;;;;;;;;16.20;93.40;;;;;;5038530;28;19917;-83
2022/07/03 00:49:50;;;;;;;;;;;16.30;93.30;;;;;;5029242;28;19943;-84
2022/07/03 00:55:49;;;;;;;;;;;16.20;93.50;;;;;;5046993;28;19924;-83
2022/07/03 00:58:20;;;;;;;;;;;16.20;93.80;;;;;;5044135;28;20243;-84
2022/07/03 01:00:51;;;;;;;;;;;16.20;93.70;;;;;;5059457;28;19936;-83
2022/07/03 01:03:21;;;;;;;;;;;16.10;93.80;;;;;;5031491;28;19925;-83
2022/07/03 01:05:51;;;;;;;;;;;16.10;94.10;;;;;;5057548;28;19925;-84
2022/07/03 01:08:35;;;;;;;;;;;16.10;94.30;;;;;;5032186;28;19932;-83
2022/07/03 01:11:03;;;;;;;;;;;16.00;94.40;;;;;;5041421;28;19929;-83
2022/07/03 01:13:37;;;;;;;;;;;16.00;94.40;;;;;;5052675;28;19935;-82
2022/07/03 01:16:13;;;;;;;;;;;16.00;94.40;;;;;;5043124;28;19931;-84
2022/07/03 01:18:46;;;;;;;;;;;16.00;94.50;;;;;;5035822;28;19925;-83
2022/07/03 01:21:37;;;;;;;;;;;15.80;94.60;;;;;;5017127;28;19939;-84
2022/07/03 01:24:20;;;;;;;;;;;15.80;94.70;;;;;;5030668;28;20334;-83
2022/07/03 01:26:50;;;;;;;;;;;15.80;94.70;;;;;;5042601;28;19926;-84
2022/07/03 01:29:29;;;;;;;;;;;15.80;94.70;;;;;;5035577;28;19929;-83
2022/07/03 01:32:09;;;;;;;;;;;15.70;95.10;;;;;;5054745;28;19932;-84
2022/07/03 01:34:40;;;;;;;;;;;15.60;95.30;;;;;;5024774;28;19932;-83
2022/07/03 01:37:10;;;;;;;;;;;15.60;95.20;;;;;;5053810;28;19925;-83
2022/07/03 01:39:39;;;;;;;;;;;15.50;95.30;;;;;;5018718;28;20949;-83
2022/07/03 01:42:24;;;;;;;;;;;15.50;95.40;;;;;;5047640;28;19925;-84
2022/07/03 01:44:58;;;;;;;;;;;15.40;95.50;;;;;;5037741;28;19928;-84
2022/07/03 01:47:30;;;;;;;;;;;15.40;95.70;;;;;;5030600;28;19929;-84
2022/07/03 01:50:11;;;;;;;;;;;15.30;95.80;;;;;;5032383;28;19936;-83
2022/07/03 01:52:42;;;;;;;;;;;15.30;95.90;;;;;;5044070;28;19932;-85
2022/07/03 01:55:16;;;;;;;;;;;15.20;96.00;;;;;;5034553;28;19929;-84
2022/07/03 01:57:48;;;;;;;;;;;15.20;95.70;;;;;;5043285;28;19943;-84
2022/07/03 02:00:20;;;;;;;;;;;15.20;95.80;;;;;;4817751;28;10000054;-84
2022/07/03 02:02:59;;;;;;;;;;;15.20;96.10;;;;;;5049997;28;19937;-84
2022/07/03 02:05:34;;;;;;;;;;;15.00;96.10;;;;;;5031214;28;19936;-83
2022/07/03 02:08:06;;;;;;;;;;;15.10;96.20;;;;;;5031548;28;19933;-83
2022/07/03 02:10:46;;;;;;;;;;;15.00;96.10;;;;;;5040541;28;19925;-83
2022/07/03 02:13:19;;;;;;;;;;;15.00;96.50;;;;;;5027694;28;19936;-85
2022/07/03 02:15:51;;;;;;;;;;;14.90;96.30;;;;;;5034986;28;20099;-84
2022/07/03 02:18:29;;;;;;;;;;;14.20;96.70;;;;;;5034800;28;19933;-84
2022/07/03 02:21:25;;;;;;;;;;;14.90;96.50;;;;;;5058691;28;19929;-84
2022/07/03 02:24:12;;;;;;;;;;;14.80;96.60;;;;;;5063068;28;20297;-83
2022/07/03 02:26:41;;;;;;;;;;;15.20;96.80;;;;;;5060387;28;19944;-84
2022/07/03 02:29:28;;;;;;;;;;;14.70;96.80;;;;;;5067326;28;19925;-84
2022/07/03 02:32:05;;;;;;;;;;;14.70;97.00;;;;;;5038020;28;19925;-83
2022/07/03 02:34:36;;;;;;;;;;;14.60;96.90;;;;;;5046929;28;19929;-85
2022/07/03 02:37:15;;;;;;;;;;;15.10;97.20;;;;;;5043808;28;20453;-84
2022/07/03 02:39:50;;;;;;;;;;;14.50;97.10;;;;;;5043763;28;19924;-83
2022/07/03 02:42:24;;;;;;;;;;;14.50;97.30;;;;;;5060262;28;19933;-82
2022/07/03 02:44:58;;;;;;;;;;;14.40;97.30;;;;;;5045548;28;19927;-84
2022/07/03 02:47:56;;;;;;;;;;;14.00;97.30;;;;;;5006552;28;19925;-84
2022/07/03 02:50:25;;;;;;;;;;;14.30;97.50;;;;;;5057037;28;19951;-84
2022/07/03 02:53:14;;;;;;;;;;;14.30;97.80;;;;;;5045554;28;19931;-82
2022/07/03 02:55:43;;;;;;;;;;;14.30;97.80;;;;;;5046103;28;20598;-83
2022/07/03 02:58:31;;;;;;;;;;;14.20;97.70;;;;;;5056069;28;19925;-84
2022/07/03 03:01:00;;;;;;;;;;;14.20;97.90;;;;;;5019156;28;19932;-84
2022/07/03 03:03:32;;;;;;;;;;;14.20;98.10;;;;;;5049340;28;19928;-83
2022/07/03 03:06:12;;;;;;;;;;;14.10;98.20;;;;;;5042578;28;19925;-84
2022/07/03 03:08:47;;;;;;;;;;;14.10;98.30;;;;;;5041506;28;19936;-83
2022/07/03 03:11:37;;;;;;;;;;;14.10;98.30;;;;;;5049186;28;19925;-85
2022/07/03 03:14:33;;;;;;;;;;;14.00;98.50;;;;;;5036175;28;19929;-83
2022/07/03 03:17:05;;;;;;;;;;;14.00;98.60;;;;;;5036940;28;19929;-84
2022/07/03 03:19:40;;;;;;;;;;;13.90;98.70;;;;;;5046022;28;20101;-84
2022/07/03 03:22:20;;;;;;;;;;;13.90;98.90;;;;;;5018326;28;19930;-84
2022/07/03 03:25:23;;;;;;;;;;;12.20;98.50;;;;;;5019464;28;19944;-83
2022/07/03 03:31:09;;;;;;;;;;;14.10;99.00;;;;;;5040242;28;19951;-84
2022/07/03 03:33:41;;;;;;;;;;;13.80;99.00;;;;;;5040863;28;19925;-84
2022/07/03 03:36:13;;;;;;;;;;;13.80;99.10;;;;;;5031600;28;19932;-85
2022/07/03 03:42:21;;;;;;;;;;;13.70;99.40;;;;;;5041459;28;19935;-84
2022/07/03 03:44:50;;;;;;;;;;;13.70;99.30;;;;;;5042614;28;19925;-81
2022/07/03 03:47:19;;;;;;;;;;;13.70;99.30;;;;;;5043754;28;19925;-83
2022/07/03 03:49:49;;;;;;;;;;;13.60;99.50;;;;;;5045107;28;19922;-84
2022/07/03 03:52:26;;;;;;;;;;;12.30;99.20;;;;;;4990520;28;19926;-83
2022/07/03 03:58:15;;;;;;;;;;;13.60;99.90;;;;;;5045773;28;19928;-84
2022/07/03 04:00:45;;;;;;;;;;;13.50;99.90;;;;;;5041457;28;19929;-84
2022/07/03 04:03:18;;;;;;;;;;;13.50;99.90;;;;;;5032689;28;19934;-84
2022/07/03 04:05:46;;;;;;;;;;;13.50;99.90;;;;;;5029816;28;20438;-84
2022/07/03 04:08:15;;;;;;;;;;;13.50;99.90;;;;;;5044775;28;19932;-84
2022/07/03 04:11:18;;;;;;;;;;;13.50;99.90;;;;;;5021127;28;19925;-83
2022/07/03 04:13:58;;;;;;;;;;;13.50;99.90;;;;;;5042065;28;19935;-83
2022/07/03 04:16:32;;;;;;;;;;;13.20;99.90;;;;;;5044981;28;19925;-84
2022/07/03 04:19:02;;;;;;;;;;;13.50;99.90;;;;;;5048791;28;19909;-85
2022/07/03 04:21:31;;;;;;;;;;;13.50;99.90;;;;;;5035693;28;19920;-84
2022/07/03 04:24:00;;;;;;;;;;;13.40;99.90;;;;;;5033008;28;19931;-83
2022/07/03 04:26:33;;;;;;;;;;;13.50;99.90;;;;;;5047882;28;19940;-84
2022/07/03 04:29:11;;;;;;;;;;;13.40;99.90;;;;;;5049448;28;19929;-83
2022/07/03 04:31:39;;;;;;;;;;;13.40;99.90;;;;;;5062090;28;19929;-83
2022/07/03 04:37:29;;;;;;;;;;;13.40;99.90;;;;;;5066904;28;19924;-84
2022/07/03 04:40:06;;;;;;;;;;;15.00;99.90;;;;;;5053824;28;19931;-84
2022/07/03 04:42:34;;;;;;;;;;;13.40;99.90;;;;;;5044540;28;19933;-83
2022/07/03 04:45:08;;;;;;;;;;;13.40;99.90;;;;;;5054751;28;19931;-84
2022/07/03 04:47:37;;;;;;;;;;;13.70;99.90;;;;;;5062333;28;19929;-84
2022/07/03 04:50:05;;;;;;;;;;;13.50;99.90;;;;;;5038185;28;20421;-83
2022/07/03 04:52:35;;;;;;;;;;;13.50;99.90;;;;;;5045086;28;19929;-84
2022/07/03 04:55:06;;;;;;;;;;;13.50;99.90;;;;;;5043928;28;19925;-84
2022/07/03 05:00:59;;;;;;;;;;;13.60;99.90;;;;;;5050065;28;19936;-84
2022/07/03 05:03:28;;;;;;;;;;;13.60;99.90;;;;;;5044520;28;19926;-83
2022/07/03 05:05:58;;;;;;;;;;;13.70;99.90;;;;;;5047031;28;20520;-82
2022/07/03 05:08:27;;;;;;;;;;;13.70;99.90;;;;;;5040274;28;19936;-84
2022/07/03 05:11:01;;;;;;;;;;;15.50;99.90;;;;;;5035944;28;20448;-84
2022/07/03 05:13:33;;;;;;;;;;;13.70;99.90;;;;;;5035849;28;19935;-84
2022/07/03 05:16:05;;;;;;;;;;;13.80;99.90;;;;;;5024407;28;19925;-83
2022/07/03 05:18:34;;;;;;;;;;;13.00;99.90;;;;;;5054544;28;19929;-82
2022/07/03 05:21:04;;;;;;;;;;;13.90;99.90;;;;;;5052814;28;19929;-84
2022/07/03 05:23:33;;;;;;;;;;;13.30;99.90;;;;;;5067707;28;19928;-83
2022/07/03 05:26:03;;;;;;;;;;;14.00;99.90;;;;;;5048764;28;19933;-84
2022/07/03 05:28:39;;;;;;;;;;;14.00;99.90;;;;;;5058320;28;19921;-82
2022/07/03 05:31:12;;;;;;;;;;;14.00;99.90;;;;;;5035087;28;19940;-83
2022/07/03 05:33:48;;;;;;;;;;;14.00;99.90;;;;;;5058310;28;20448;-82
2022/07/03 05:36:17;;;;;;;;;;;14.20;99.90;;;;;;5052146;28;19929;-83
2022/07/03 05:41:34;;;;;;;;;;;14.20;99.90;;;;;;5045778;28;19925;-84
2022/07/03 05:44:04;;;;;;;;;;;13.90;99.90;;;;;;5043159;28;19936;-84
2022/07/03 05:46:34;;;;;;;;;;;14.30;99.90;;;;;;5031771;28;19925;-83
2022/07/03 05:50:00;;;;;;;;;;;14.30;99.90;;;;;;5041397;28;20094;-83
2022/07/03 05:52:35;;;;;;;;;;;14.40;99.90;;;;;;5057423;28;19920;-83
2022/07/03 05:55:05;;;;;;;;;;;14.50;99.90;;;;;;5034513;28;19925;-84
2022/07/03 05:57:37;;;;;;;;;;;14.50;99.90;;;;;;5066154;28;19925;-81
2022/07/03 06:00:17;;;;;;;;;;;14.50;99.90;;;;;;5048197;28;19924;-84
2022/07/03 06:02:51;;;;;;;;;;;15.60;99.90;;;;;;5037983;28;19929;-83
2022/07/03 06:05:45;;;;;;;;;;;14.60;99.90;;;;;;5036491;28;19925;-84
2022/07/03 06:08:17;;;;;;;;;;;14.70;99.90;;;;;;5051911;28;19925;-84
2022/07/03 06:10:54;;;;;;;;;;;14.80;99.90;;;;;;5061456;28;19925;-82
2022/07/03 06:13:23;;;;;;;;;;;14.80;99.90;;;;;;5038927;28;19917;-82
2022/07/03 06:15:51;;;;;;;;;;;14.90;99.90;;;;;;5054636;28;19917;-82
2022/07/03 06:18:57;;;;;;;;;;;14.90;99.90;;;;;;5044382;28;19933;-83
2022/07/03 06:21:26;;;;;;;;;;;15.00;99.90;;;;;;5071023;28;19915;-83
2022/07/03 06:24:24;;;;;;;;;;;15.60;99.90;;;;;;5041948;28;19932;-84
2022/07/03 06:27:00;;;;;;;;;;;15.00;99.70;;;;;;5037554;28;19936;-83
2022/07/03 06:29:38;;;;;;;;;;;15.00;99.60;;;;;;5050794;28;19929;-83
2022/07/03 06:32:09;;;;;;;;;;;15.30;99.60;;;;;;5033975;28;19936;-82
2022/07/03 06:34:45;;;;;;;;;;;14.70;99.30;;;;;;5032587;28;19913;-85
2022/07/03 06:37:24;;;;;;;;;;;15.30;99.50;;;;;;5036905;28;19923;-84
2022/07/03 06:40:00;;;;;;;;;;;15.30;99.40;;;;;;5051384;28;19929;-84
2022/07/03 06:42:58;;;;;;;;;;;15.40;99.30;;;;;;5038071;28;19921;-84
2022/07/03 06:45:29;;;;;;;;;;;15.50;99.10;;;;;;5057053;28;19925;-83
2022/07/03 06:48:00;;;;;;;;;;;15.60;98.90;;;;;;5062678;28;19929;-84
2022/07/03 06:50:30;;;;;;;;;;;15.70;98.60;;;;;;5037548;28;19929;-85
2022/07/03 06:52:58;;;;;;;;;;;15.80;98.60;;;;;;5024858;28;19925;-83
2022/07/03 06:59:10;;;;;;;;;;;16.00;98.30;;;;;;5050838;28;19919;-84
2022/07/03 07:01:54;;;;;;;;;;;16.40;98.10;;;;;;5035325;28;19935;-84
2022/07/03 07:04:24;;;;;;;;;;;16.20;97.80;;;;;;4743620;28;9999616;-83
2022/07/03 07:06:54;;;;;;;;;;;16.30;98.20;;;;;;5111293;23;20376;-85
2022/07/03 07:09:24;;;;;;;;;;;16.40;98.00;;;;;;5054017;28;19931;-86
2022/07/03 07:12:20;;;;;;;;;;;15.80;97.30;;;;;;5038623;28;20271;-84
2022/07/03 07:14:55;;;;;;;;;;;16.60;97.20;;;;;;5059014;28;19933;-84
2022/07/03 07:17:35;;;;;;;;;;;16.80;97.10;;;;;;5067988;28;19932;-84
2022/07/03 07:20:06;;;;;;;;;;;16.80;96.90;;;;;;5049956;28;19933;-84
2022/07/03 07:23:03;;;;;;;;;;;16.90;96.10;;;;;;5052342;28;20318;-83
2022/07/03 07:25:40;;;;;;;;;;;16.60;96.20;;;;;;5051662;28;19913;-85
2022/07/03 07:28:13;;;;;;;;;;;16.90;96.20;;;;;;5048105;28;19929;-84
2022/07/03 07:30:44;;;;;;;;;;;16.90;96.40;;;;;;5062262;28;19933;-82
2022/07/03 07:36:39;;;;;;;;;;;16.80;96.10;;;;;;5047269;28;19935;-84
2022/07/03 07:39:09;;;;;;;;;;;15.50;95.70;;;;;;5066716;28;20021;-85
2022/07/03 07:41:46;;;;;;;;;;;17.00;95.90;;;;;;5048992;28;19933;-85
2022/07/03 07:44:19;;;;;;;;;;;17.30;95.50;;;;;;5042313;28;19925;-85
2022/07/03 07:46:49;;;;;;;;;;;17.00;95.30;;;;;;5049313;28;19940;-85
2022/07/03 07:49:26;;;;;;;;;;;17.00;95.40;;;;;;5066340;28;19928;-83
2022/07/03 07:52:00;;;;;;;;;;;17.20;95.90;;;;;;5064704;28;19935;-84
2022/07/03 07:54:38;;;;;;;;;;;17.30;95.30;;;;;;5064368;28;19931;-84
2022/07/03 07:57:07;;;;;;;;;;;17.40;94.90;;;;;;5052839;28;19935;-84
2022/07/03 07:59:43;;;;;;;;;;;17.50;95.30;;;;;;5052499;28;19933;-84
2022/07/03 08:05:36;;;;;;;;;;;16.90;94.40;;;;;;5046699;28;19929;-83
2022/07/03 08:08:25;;;;;;;;;;;18.20;94.20;;;;;;4987251;28;19933;-84
2022/07/03 08:10:55;;;;;;;;;;;18.40;93.80;;;;;;5022268;28;19925;-84
2022/07/03 08:13:37;;;;;;;;;;;18.10;93.50;;;;;;5007430;28;19930;-85
2022/07/03 08:16:07;;;;;;;;;;;16.90;92.70;;;;;;5010980;28;19929;-85
2022/07/03 08:18:44;;;;;;;;;;;17.10;92.20;;;;;;5008549;28;19936;-83
2022/07/03 08:21:18;;;;;;;;;;;18.20;93.00;;;;;;5014288;28;19940;-85
2022/07/03 08:23:47;;;;;;;;;;;18.10;93.00;;;;;;4997107;28;19926;-85
2022/07/03 08:26:17;;;;;;;;;;;18.20;93.60;;;;;;5011510;28;19925;-85
2022/07/03 08:29:27;;;;;;;;;;;18.20;93.20;;;;;;5025799;28;20228;-84
2022/07/03 08:32:10;;;;;;;;;;;19.90;93.20;;;;;;5005500;28;19929;-82
2022/07/03 08:34:40;;;;;;;;;;;18.40;92.50;;;;;;4996106;28;20758;-83
2022/07/03 08:37:10;;;;;;;;;;;18.80;92.70;;;;;;5027998;28;19928;-84
2022/07/03 08:39:39;;;;;;;;;;;18.50;92.40;;;;;;5027074;28;19936;-84
2022/07/03 08:42:11;;;;;;;;;;;18.60;92.00;;;;;;5009109;28;19939;-85
2022/07/03 08:44:56;;;;;;;;;;;18.60;92.10;;;;;;4990970;28;19949;-83
2022/07/03 08:47:26;;;;;;;;;;;18.80;92.00;;;;;;5008718;28;19936;-85
2022/07/03 08:49:58;;;;;;;;;;;18.90;91.80;;;;;;5027316;28;19930;-83
2022/07/03 08:52:36;;;;;;;;;;;18.90;91.70;;;;;;5026186;28;19929;-84
2022/07/03 08:55:08;;;;;;;;;;;18.50;91.00;;;;;;5011984;28;19925;-86
2022/07/03 08:57:41;;;;;;;;;;;19.10;91.20;;;;;;4993486;28;19933;-84
2022/07/03 09:00:16;;;;;;;;;;;19.10;91.10;;;;;;5009278;28;19926;-84
2022/07/03 09:02:48;;;;;;;;;;;19.10;91.10;;;;;;4998505;28;19940;-84
2022/07/03 09:05:19;;;;;;;;;;;19.10;90.50;;;;;;5027874;28;19940;-83
2022/07/03 09:07:49;;;;;;;;;;;19.10;90.70;;;;;;5012950;28;19932;-85
2022/07/03 09:10:19;;;;;;;;;;;18.80;90.20;;;;;;4995897;28;19932;-85
2022/07/03 09:12:49;;;;;;;;;;;18.60;90.50;;;;;;5028968;28;19925;-85
2022/07/03 09:15:25;;;;;;;;;;;19.00;90.60;;;;;;5013047;28;19925;-84
2022/07/03 09:18:01;;;;;;;;;;;19.10;90.60;;;;;;5031468;28;19930;-84
2022/07/03 09:20:33;;;;;;;;;;;20.40;90.80;;;;;;4994190;28;19929;-85
2022/07/03 09:23:10;;;;;;;;;;;19.40;90.40;;;;;;5014544;28;19936;-83
2022/07/03 09:25:53;;;;;;;;;;;19.30;90.30;;;;;;5027421;28;19933;-85
2022/07/03 09:28:42;;;;;;;;;;;19.40;90.00;;;;;;5014936;28;19941;-84
2022/07/03 09:31:18;;;;;;;;;;;19.20;90.10;;;;;;5036557;28;19929;-85
2022/07/03 09:34:11;;;;;;;;;;;19.60;89.50;;;;;;4990778;28;19944;-85
2022/07/03 09:36:45;;;;;;;;;;;19.40;89.40;;;;;;5012313;28;19940;-84
2022/07/03 09:39:30;;;;;;;;;;;19.80;89.40;;;;;;5033462;28;19909;-87
2022/07/03 09:42:05;;;;;;;;;;;19.80;88.30;;;;;;5020773;28;19936;-84
2022/07/03 09:44:59;;;;;;;;;;;19.80;88.40;;;;;;5014343;28;20019;-84
2022/07/03 09:47:37;;;;;;;;;;;20.00;88.60;;;;;;5013187;28;19936;-85
2022/07/03 09:50:15;;;;;;;;;;;19.70;88.10;;;;;;5032498;28;19939;-84
2022/07/03 09:52:56;;;;;;;;;;;19.80;88.20;;;;;;5030983;28;19933;-85
2022/07/03 09:55:27;;;;;;;;;;;19.50;88.20;;;;;;5001893;28;19940;-83
2022/07/03 09:58:01;;;;;;;;;;;20.00;88.20;;;;;;5035959;28;19925;-84
2022/07/03 10:00:35;;;;;;;;;;;19.80;88.20;;;;;;4996244;28;19926;-86
2022/07/03 10:03:33;;;;;;;;;;;19.80;88.00;;;;;;5024876;28;19921;-84
2022/07/03 10:06:04;;;;;;;;;;;19.80;87.70;;;;;;5035669;28;19925;-85
2022/07/03 10:08:51;;;;;;;;;;;19.90;87.60;;;;;;5020704;28;19933;-85
2022/07/03 10:11:22;;;;;;;;;;;20.00;87.50;;;;;;5021405;28;20193;-86
2022/07/03 10:13:50;;;;;;;;;;;20.10;88.50;;;;;;5034656;28;20382;-83
2022/07/03 10:16:33;;;;;;;;;;;20.20;88.40;;;;;;5043086;28;19925;-85
2022/07/03 10:19:05;;;;;;;;;;;20.30;87.10;;;;;;5047500;28;19936;-84
2022/07/03 10:21:36;;;;;;;;;;;20.40;86.00;;;;;;5029242;28;19933;-84
2022/07/03 10:24:08;;;;;;;;;;;20.80;85.10;;;;;;5031462;28;19929;-84
2022/07/03 10:26:40;;;;;;;;;;;20.80;85.30;;;;;;5048079;28;19939;-86
2022/07/03 10:29:15;;;;;;;;;;;20.80;84.90;;;;;;5042874;28;19926;-85
2022/07/03 10:35:02;;;;;;;;;;;21.30;84.80;;;;;;5061076;28;19936;-85
2022/07/03 10:37:33;;;;;;;;;;;21.60;84.30;;;;;;5045305;28;19935;-85
2022/07/03 10:46:12;;;;;;;;;;;20.70;81.40;;;;;;5062571;28;19929;-84
2022/07/03 10:49:13;;;;;;;;;;;21.00;81.20;;;;;;5045621;28;19933;-83
2022/07/03 10:51:44;;;;;;;;;;;21.80;81.80;;;;;;5048126;28;19943;-84
2022/07/03 10:54:18;;;;;;;;;;;21.50;81.50;;;;;;5065613;28;19924;-84
2022/07/03 10:56:58;;;;;;;;;;;21.70;82.20;;;;;;5051930;28;19935;-84
2022/07/03 10:59:36;;;;;;;;;;;21.90;82.60;;;;;;5067590;28;19932;-84
2022/07/03 11:02:19;;;;;;;;;;;21.40;82.00;;;;;;5032833;28;19936;-85
2022/07/03 11:05:03;;;;;;;;;;;21.80;82.50;;;;;;5032996;28;19929;-84
2022/07/03 11:07:53;;;;;;;;;;;21.90;82.40;;;;;;5035183;28;19943;-83
2022/07/03 11:10:24;;;;;;;;;;;21.70;82.30;;;;;;5067340;28;19935;-83
2022/07/03 11:13:06;;;;;;;;;;;22.10;83.50;;;;;;5033980;28;19929;-83
2022/07/03 11:15:34;;;;;;;;;;;22.40;82.10;;;;;;5048496;28;19925;-83
2022/07/03 11:18:23;;;;;;;;;;;22.50;81.80;;;;;;5048999;28;19943;-83
2022/07/03 11:20:56;;;;;;;;;;;22.20;81.00;;;;;;5066941;28;19943;-84
2022/07/03 11:23:29;;;;;;;;;;;22.30;79.60;;;;;;5051122;28;19941;-84
2022/07/03 11:25:59;;;;;;;;;;;22.30;79.90;;;;;;5064350;28;19929;-83
2022/07/03 11:28:35;;;;;;;;;;;22.60;80.30;;;;;;5051083;28;19940;-82
2022/07/03 11:31:10;;;;;;;;;;;22.70;79.30;;;;;;5068510;28;19929;-83
2022/07/03 11:34:21;;;;;;;;;;;22.90;80.30;;;;;;5048767;28;19940;-83
2022/07/03 11:36:50;;;;;;;;;;;23.10;78.30;;;;;;5047988;28;20421;-84
2022/07/03 11:39:29;;;;;;;;;;;23.10;79.00;;;;;;5040625;28;19919;-83
2022/07/03 11:42:06;;;;;;;;;;;23.00;79.00;;;;;;5024053;28;19940;-84
2022/07/03 11:44:41;;;;;;;;;;;22.90;78.90;;;;;;5035258;28;19919;-84
2022/07/03 11:47:14;;;;;;;;;;;22.80;79.20;;;;;;5050385;28;20034;-83
2022/07/03 11:49:49;;;;;;;;;;;22.60;78.90;;;;;;5033109;28;19925;-84
2022/07/03 11:52:33;;;;;;;;;;;22.70;79.50;;;;;;5046596;28;19925;-84
2022/07/03 11:55:01;;;;;;;;;;;22.60;79.60;;;;;;5042265;28;19934;-84
2022/07/03 11:57:31;;;;;;;;;;;22.20;80.00;;;;;;5026550;28;20417;-83
2022/07/03 12:00:06;;;;;;;;;;;22.30;78.20;;;;;;5045440;28;19925;-84
2022/07/03 12:03:10;;;;;;;;;;;22.30;78.90;;;;;;5015629;28;19933;-87
2022/07/03 12:05:49;;;;;;;;;;;22.80;77.20;;;;;;4991581;28;19928;-83
2022/07/03 12:08:42;;;;;;;;;;;22.80;78.90;;;;;;5031419;28;19925;-84
2022/07/03 12:11:18;;;;;;;;;;;23.00;77.90;;;;;;5043854;28;19931;-83
2022/07/03 12:13:54;;;;;;;;;;;23.30;77.10;;;;;;5044720;28;19925;-84
2022/07/03 12:16:31;;;;;;;;;;;23.70;75.70;;;;;;5012755;28;19940;-85
2022/07/03 12:19:05;;;;;;;;;;;23.90;75.60;;;;;;5031495;28;19933;-83
2022/07/03 12:21:37;;;;;;;;;;;24.30;73.60;;;;;;5010547;28;19924;-84
2022/07/03 12:24:13;;;;;;;;;;;24.30;74.60;;;;;;5038877;28;19936;-83
2022/07/03 12:26:47;;;;;;;;;;;24.40;73.80;;;;;;5038929;28;19929;-83
2022/07/03 12:29:23;;;;;;;;;;;24.60;73.50;;;;;;5011992;28;19932;-84
2022/07/03 12:32:00;;;;;;;;;;;24.20;73.70;;;;;;5046769;28;19999;-85
2022/07/03 12:34:36;;;;;;;;;;;24.00;72.70;;;;;;5041145;28;20335;-85
2022/07/03 12:37:06;;;;;;;;;;;23.80;73.70;;;;;;5028895;28;19925;-85
2022/07/03 12:39:43;;;;;;;;;;;23.80;73.90;;;;;;5041185;28;19933;-84
2022/07/03 12:42:16;;;;;;;;;;;23.80;73.60;;;;;;5042350;28;19932;-85
2022/07/03 12:45:02;;;;;;;;;;;24.10;74.40;;;;;;5027999;28;19944;-86
2022/07/03 12:47:33;;;;;;;;;;;23.40;72.90;;;;;;5029516;28;19936;-85
2022/07/03 12:50:07;;;;;;;;;;;24.40;73.60;;;;;;5026789;28;19952;-83
2022/07/03 12:53:09;;;;;;;;;;;25.20;73.10;;;;;;5010963;28;19940;-83
2022/07/03 12:55:45;;;;;;;;;;;24.60;70.00;;;;;;4976968;28;19930;-84
2022/07/03 13:01:24;;;;;;;;;;;24.40;70.70;;;;;;5020326;28;19932;-85
2022/07/03 13:04:02;;;;;;;;;;;24.30;71.60;;;;;;5004292;28;19929;-84
2022/07/03 13:06:41;;;;;;;;;;;24.10;71.90;;;;;;5025123;28;20035;-83
2022/07/03 13:09:10;;;;;;;;;;;24.20;71.40;;;;;;5007397;28;19926;-82
2022/07/03 13:11:39;;;;;;;;;;;24.40;70.80;;;;;;4991667;28;19948;-81
2022/07/03 13:14:13;;;;;;;;;;;24.40;70.30;;;;;;5008927;28;19933;-84
2022/07/03 13:16:48;;;;;;;;;;;24.30;70.30;;;;;;5028306;28;19936;-81
2022/07/03 13:19:24;;;;;;;;;;;23.90;70.60;;;;;;5008799;28;19933;-82
2022/07/03 13:21:55;;;;;;;;;;;24.00;70.40;;;;;;5011724;28;19933;-84
2022/07/03 13:24:23;;;;;;;;;;;24.00;70.50;;;;;;5024582;28;19929;-84
2022/07/03 13:26:53;;;;;;;;;;;23.70;71.00;;;;;;5014068;28;20081;-84
2022/07/03 13:29:29;;;;;;;;;;;23.70;71.70;;;;;;5021844;28;19944;-83
2022/07/03 13:32:00;;;;;;;;;;;23.60;70.90;;;;;;5014802;28;19927;-83
2022/07/03 13:34:54;;;;;;;;;;;23.50;71.80;;;;;;4992895;28;19929;-83
2022/07/03 13:37:24;;;;;;;;;;;23.40;70.90;;;;;;5016322;28;19930;-83
2022/07/03 13:39:53;;;;;;;;;;;24.00;71.60;;;;;;5025024;28;19929;-83
2022/07/03 13:42:24;;;;;;;;;;;23.30;72.20;;;;;;5024883;28;19930;-84
2022/07/03 13:44:56;;;;;;;;;;;23.20;71.10;;;;;;5022669;28;19943;-84
2022/07/03 13:47:25;;;;;;;;;;;23.20;71.10;;;;;;5017943;28;19929;-82
2022/07/03 13:49:54;;;;;;;;;;;23.10;70.90;;;;;;5019864;28;19940;-84
2022/07/03 13:52:28;;;;;;;;;;;23.40;72.00;;;;;;5023743;28;19925;-83
2022/07/03 13:54:56;;;;;;;;;;;23.50;71.00;;;;;;5022577;28;20206;-83
2022/07/03 13:57:24;;;;;;;;;;;22.00;69.40;;;;;;5023855;28;19952;-82
2022/07/03 13:59:52;;;;;;;;;;;24.40;70.50;;;;;;5021525;28;19929;-82
2022/07/03 14:02:20;;;;;;;;;;;25.10;69.00;;;;;;5018486;28;19925;-83
2022/07/03 14:04:48;;;;;;;;;;;25.70;69.60;;;;;;5008684;28;19933;-84
2022/07/03 14:07:21;;;;;;;;;;;26.20;68.30;;;;;;5023203;28;19925;-84
2022/07/03 14:09:50;;;;;;;;;;;26.40;67.70;;;;;;5004657;28;19925;-83
2022/07/03 14:12:23;;;;;;;;;;;26.60;67.80;;;;;;5003675;28;20201;-85
2022/07/03 14:14:52;;;;;;;;;;;26.40;67.40;;;;;;5029091;28;19921;-83
2022/07/03 14:17:48;;;;;;;;;;;26.20;67.80;;;;;;5039851;28;20385;-83
2022/07/03 14:20:17;;;;;;;;;;;25.90;66.70;;;;;;5033294;28;19929;-83
2022/07/03 14:22:45;;;;;;;;;;;25.40;66.10;;;;;;5006834;28;19943;-82
2022/07/03 14:25:19;;;;;;;;;;;25.20;66.80;;;;;;5008650;28;19929;-82
2022/07/03 14:33:31;;;;;;;;;;;24.30;67.30;;;;;;5032886;28;19940;-83
2022/07/03 14:35:59;;;;;;;;;;;24.50;67.50;;;;;;5018588;28;19940;-82
2022/07/03 14:38:38;;;;;;;;;;;24.40;67.80;;;;;;5022532;28;19933;-84
2022/07/03 14:41:07;;;;;;;;;;;24.30;67.70;;;;;;4666450;28;10000111;-84
2022/07/03 14:43:36;;;;;;;;;;;24.20;68.50;;;;;;5034071;28;19925;-84
2022/07/03 14:46:06;;;;;;;;;;;22.50;67.50;;;;;;5038655;28;19933;-84
2022/07/03 14:48:36;;;;;;;;;;;23.90;68.70;;;;;;5018523;28;19932;-83
2022/07/03 14:51:06;;;;;;;;;;;24.00;70.00;;;;;;5011080;28;19928;-84
2022/07/03 14:53:35;;;;;;;;;;;23.70;69.90;;;;;;5041494;28;19936;-84
2022/07/03 14:56:12;;;;;;;;;;;23.60;70.00;;;;;;5041072;28;19925;-83
2022/07/03 14:58:44;;;;;;;;;;;23.80;70.10;;;;;;4993757;28;19933;-83
2022/07/03 15:01:16;;;;;;;;;;;22.90;70.00;;;;;;5022132;28;19933;-84
2022/07/03 15:04:04;;;;;;;;;;;23.30;70.40;;;;;;5035738;28;19935;-83
2022/07/03 15:06:32;;;;;;;;;;;23.20;70.00;;;;;;5026358;28;20779;-84
2022/07/03 15:09:02;;;;;;;;;;;23.20;71.00;;;;;;5041749;28;19925;-84
2022/07/03 15:14:28;;;;;;;;;;;24.40;71.00;;;;;;5021578;28;20307;-84
2022/07/03 15:17:07;;;;;;;;;;;23.80;70.40;;;;;;5006474;28;19936;-83
2022/07/03 15:19:41;;;;;;;;;;;23.00;70.10;;;;;;5009618;28;19929;-83
2022/07/03 15:22:17;;;;;;;;;;;22.90;69.70;;;;;;5037664;28;19932;-84
2022/07/03 15:24:53;;;;;;;;;;;22.00;70.40;;;;;;5033841;28;19927;-84
2022/07/03 15:27:30;;;;;;;;;;;23.80;72.00;;;;;;5020905;28;19936;-83
2022/07/03 15:30:00;;;;;;;;;;;23.00;72.40;;;;;;5023463;28;19933;-83
2022/07/03 15:32:28;;;;;;;;;;;23.00;72.80;;;;;;5042076;28;19933;-84
2022/07/03 15:34:58;;;;;;;;;;;23.10;74.50;;;;;;5027119;28;19930;-84
2022/07/03 15:37:37;;;;;;;;;;;22.90;73.30;;;;;;5024895;28;19925;-83
2022/07/03 15:40:10;;;;;;;;;;;22.90;72.90;;;;;;5023113;28;19933;-83
2022/07/03 15:42:56;;;;;;;;;;;23.00;72.30;;;;;;5021975;28;20305;-83
2022/07/03 15:45:56;;;;;;;;;;;23.00;72.20;;;;;;5010010;28;19935;-83
2022/07/03 15:48:45;;;;;;;;;;;22.10;71.90;;;;;;5004963;28;19939;-83
2022/07/03 15:51:27;;;;;;;;;;;21.50;71.80;;;;;;5011054;28;19936;-83
2022/07/03 15:54:03;;;;;;;;;;;22.90;73.90;;;;;;5029083;28;19925;-83
2022/07/03 15:56:34;;;;;;;;;;;22.80;74.70;;;;;;5018873;28;19933;-85
2022/07/03 15:59:04;;;;;;;;;;;23.00;75.20;;;;;;5015651;28;19933;-83
2022/07/03 16:04:28;;;;;;;;;;;22.80;75.40;;;;;;5042618;28;19929;-83
2022/07/03 16:06:56;;;;;;;;;;;22.70;74.80;;;;;;5029084;28;19933;-83